Time;durP1;ratioP1;P1;durP2;ratioP2;P2;SDS_P1;SDS_P2;PMS_P1;PMS_P2;Temp;Humidity;BMP_temperature;BMP_pressure;BME280_temperature;BME280_humidity;BME280_pressure;Samples;Min_cycle;Max_cycle;Signal;HPM_P1;HPM_P2
2022/04/06 00:02:25;;;;;;;118.80;62.75;;;5.20;99.90;;;;;;5043934;28;20549;-77
2022/04/06 00:04:52;;;;;;;96.22;50.55;;;5.20;99.90;;;;;;5062496;28;20077;-77
2022/04/06 00:07:20;;;;;;;96.43;51.53;;;5.20;99.90;;;;;;5062181;28;20087;-77
2022/04/06 00:09:48;;;;;;;87.03;46.05;;;5.20;99.90;;;;;;5060663;28;20041;-76
2022/04/06 00:12:15;;;;;;;94.00;47.60;;;5.10;99.90;;;;;;5041846;28;20091;-77
2022/04/06 00:14:45;;;;;;;109.97;57.17;;;5.10;99.90;;;;;;5040552;28;20053;-76
2022/04/06 00:17:13;;;;;;;150.95;72.80;;;5.00;99.90;;;;;;5040781;28;20049;-76
2022/04/06 00:19:41;;;;;;;113.65;59.85;;;5.00;99.90;;;;;;5040106;28;20402;-76
2022/04/06 00:22:09;;;;;;;102.72;58.13;;;5.00;99.90;;;;;;5041348;28;20037;-77
2022/04/06 00:24:36;;;;;;;100.40;53.53;;;5.00;99.90;;;;;;5040708;28;20059;-76
2022/04/06 00:27:05;;;;;;;99.70;53.72;;;5.00;99.90;;;;;;5058795;28;20060;-76
2022/04/06 00:29:32;;;;;;;90.43;48.97;;;5.00;99.90;;;;;;5058648;28;20069;-75
2022/04/06 00:32:01;;;;;;;89.10;49.10;;;4.90;99.90;;;;;;5040935;28;20394;-77
2022/04/06 00:37:14;;;;;;;79.20;42.92;;;4.80;99.90;;;;;;5068742;28;20044;-74
2022/04/06 00:39:41;;;;;;;72.70;40.38;;;4.90;99.90;;;;;;5050665;28;20455;-76
2022/04/06 00:42:09;;;;;;;69.75;39.00;;;4.80;99.90;;;;;;5067773;28;20041;-76
2022/04/06 00:44:37;;;;;;;65.32;38.47;;;4.80;99.90;;;;;;5049386;28;20057;-77
2022/04/06 00:47:07;;;;;;;62.53;34.42;;;4.80;99.90;;;;;;5040128;28;20053;-76
2022/04/06 00:49:35;;;;;;;64.97;36.72;;;4.80;99.90;;;;;;5058057;28;20071;-78
2022/04/06 00:52:05;;;;;;;64.55;34.35;;;4.80;99.90;;;;;;5058426;28;20071;-77
2022/04/06 00:54:33;;;;;;;63.75;34.10;;;4.80;99.90;;;;;;5040262;28;20467;-77
2022/04/06 00:57:01;;;;;;;62.05;34.55;;;4.80;99.90;;;;;;5057432;28;20076;-77
2022/04/06 00:59:31;;;;;;;60.67;33.88;;;4.70;99.90;;;;;;5040506;28;20041;-77
2022/04/06 01:02:00;;;;;;;57.30;31.13;;;4.60;99.90;;;;;;5057334;28;20056;-77
2022/04/06 01:04:29;;;;;;;54.05;31.55;;;4.50;99.90;;;;;;5038413;28;20044;-76
2022/04/06 01:06:57;;;;;;;54.08;30.35;;;4.50;99.90;;;;;;5031956;28;20048;-77
2022/04/06 01:09:25;;;;;;;44.55;25.58;;;4.60;99.90;;;;;;5055170;28;20072;-75
2022/04/06 01:11:53;;;;;;;47.88;27.20;;;4.60;99.90;;;;;;5056764;28;20412;-77
2022/04/06 01:14:21;;;;;;;42.38;24.30;;;4.50;99.90;;;;;;5039593;28;20041;-77
2022/04/06 01:16:59;;;;;;;39.20;22.33;;;4.30;99.90;;;;;;5039017;28;20052;-76
2022/04/06 01:19:33;;;;;;;50.42;25.92;;;4.20;99.90;;;;;;5038809;28;20049;-78
2022/04/06 01:22:00;;;;;;;39.85;22.75;;;4.20;99.90;;;;;;5039051;28;20102;-78
2022/04/06 01:24:30;;;;;;;46.10;26.48;;;4.30;99.90;;;;;;5038375;28;20052;-78
2022/04/06 01:27:00;;;;;;;49.88;26.30;;;4.40;99.90;;;;;;5057440;28;20575;-77
2022/04/06 01:29:28;;;;;;;48.78;26.17;;;4.40;99.90;;;;;;5039209;28;20051;-78
2022/04/06 01:31:55;;;;;;;45.28;25.17;;;4.40;99.90;;;;;;5056637;28;20484;-76
2022/04/06 01:34:23;;;;;;;42.83;24.50;;;4.40;99.90;;;;;;5039028;28;20179;-76
2022/04/06 01:36:50;;;;;;;47.50;25.58;;;4.30;99.90;;;;;;5038460;28;20124;-76
2022/04/06 01:39:18;;;;;;;49.90;27.52;;;4.30;99.90;;;;;;5057372;28;20041;-78
2022/04/06 01:41:48;;;;;;;54.33;31.15;;;4.30;99.90;;;;;;5038864;28;20412;-78
2022/04/06 01:44:15;;;;;;;49.83;29.35;;;4.20;99.90;;;;;;5056146;28;20057;-77
2022/04/06 01:46:42;;;;;;;48.08;27.05;;;4.20;99.90;;;;;;5037870;28;20053;-77
2022/04/06 01:52:13;;;;;;;52.97;29.23;;;4.30;99.90;;;;;;5056595;28;20048;-77
2022/04/06 01:54:41;;;;;;;55.78;30.27;;;4.20;99.90;;;;;;5056022;28;20095;-77
2022/04/06 01:57:10;;;;;;;61.67;33.08;;;4.20;99.90;;;;;;5057109;28;20044;-77
2022/04/06 01:59:38;;;;;;;61.65;33.67;;;4.10;99.90;;;;;;5055947;28;20041;-76
2022/04/06 02:02:07;;;;;;;60.55;34.38;;;3.90;99.90;;;;;;5055529;28;20098;-77
2022/04/06 02:04:35;;;;;;;65.68;38.63;;;3.80;99.90;;;;;;5037219;28;20060;-77
2022/04/06 02:07:03;;;;;;;77.32;43.25;;;3.70;99.90;;;;;;5055213;28;20052;-77
2022/04/06 02:09:31;;;;;;;47.28;25.63;;;3.70;99.90;;;;;;5055679;28;20106;-76
2022/04/06 02:12:00;;;;;;;45.92;26.33;;;3.60;99.90;;;;;;5055167;28;20037;-76
2022/04/06 02:14:30;;;;;;;52.85;30.90;;;3.70;99.90;;;;;;5037317;28;20056;-76
2022/04/06 02:16:58;;;;;;;56.15;30.25;;;3.80;99.90;;;;;;5054933;28;20049;-76
2022/04/06 02:19:26;;;;;;;53.88;30.65;;;4.00;99.90;;;;;;5055361;28;20090;-77
2022/04/06 02:21:53;;;;;;;60.55;33.85;;;4.00;99.90;;;;;;5054168;28;20075;-76
2022/04/06 02:24:21;;;;;;;56.05;32.40;;;3.90;99.90;;;;;;5055062;28;20041;-76
2022/04/06 02:26:49;;;;;;;53.30;29.52;;;3.90;99.90;;;;;;5055061;28;20053;-77
2022/04/06 02:29:16;;;;;;;59.65;34.20;;;3.90;99.90;;;;;;5055217;28;20054;-76
2022/04/06 02:31:46;;;;;;;63.95;34.85;;;3.80;99.90;;;;;;5055446;28;20434;-77
2022/04/06 02:34:13;;;;;;;71.47;40.30;;;3.80;99.90;;;;;;5037973;28;20049;-77
2022/04/06 02:36:41;;;;;;;80.20;46.00;;;3.80;99.90;;;;;;5057270;28;20045;-76
2022/04/06 02:39:09;;;;;;;75.38;46.40;;;3.60;99.90;;;;;;5037714;28;20060;-77
2022/04/06 02:41:36;;;;;;;73.20;42.92;;;3.50;99.90;;;;;;5055376;28;20076;-76
2022/04/06 02:44:05;;;;;;;64.43;37.78;;;3.50;99.90;;;;;;5055344;28;20136;-75
2022/04/06 02:46:34;;;;;;;43.17;27.23;;;3.50;99.90;;;;;;5054859;28;20083;-77
2022/04/06 02:49:03;;;;;;;48.45;27.40;;;3.50;99.90;;;;;;5036728;28;20052;-77
2022/04/06 02:51:31;;;;;;;65.22;35.08;;;3.40;99.90;;;;;;5054113;28;20065;-77
2022/04/06 02:53:59;;;;;;;55.17;31.77;;;3.40;99.90;;;;;;5036298;28;20048;-76
2022/04/06 02:56:28;;;;;;;73.25;39.55;;;3.40;99.90;;;;;;5036860;28;20135;-78
2022/04/06 02:58:55;;;;;;;62.03;33.42;;;3.40;99.90;;;;;;5054824;28;20033;-77
2022/04/06 03:01:23;;;;;;;52.67;30.17;;;3.40;99.90;;;;;;5054249;28;20045;-77
2022/04/06 03:03:50;;;;;;;54.00;29.42;;;3.50;99.90;;;;;;5053714;28;20124;-76
2022/04/06 03:06:19;;;;;;;48.85;26.80;;;3.40;99.90;;;;;;5036419;28;20053;-78
2022/04/06 03:08:47;;;;;;;50.97;26.73;;;3.40;99.90;;;;;;5054425;28;20515;-77
2022/04/06 03:11:14;;;;;;;53.00;28.02;;;3.40;99.90;;;;;;5053941;28;20048;-77
2022/04/06 03:13:42;;;;;;;49.35;28.80;;;3.30;99.90;;;;;;5053687;28;20453;-77
2022/04/06 03:16:10;;;;;;;50.35;29.52;;;3.30;99.90;;;;;;5032609;28;20053;-76
2022/04/06 03:18:38;;;;;;;49.85;29.33;;;3.40;99.90;;;;;;5033814;28;20055;-77
2022/04/06 03:21:06;;;;;;;45.63;26.85;;;3.40;99.90;;;;;;5032763;28;20053;-77
2022/04/06 03:23:35;;;;;;;42.30;25.23;;;3.40;99.90;;;;;;5032410;28;20057;-76
2022/04/06 03:26:02;;;;;;;43.05;24.92;;;3.40;99.90;;;;;;5034325;28;20129;-75
2022/04/06 03:28:30;;;;;;;42.80;24.75;;;3.30;99.90;;;;;;5051336;28;20048;-78
2022/04/06 03:30:57;;;;;;;41.58;24.48;;;3.30;99.90;;;;;;5054287;28;20041;-78
2022/04/06 03:33:25;;;;;;;42.38;26.77;;;3.30;99.90;;;;;;5035742;28;20045;-77
2022/04/06 03:35:52;;;;;;;47.67;25.23;;;3.30;99.90;;;;;;5036811;28;20079;-77
2022/04/06 03:38:20;;;;;;;51.58;30.02;;;3.30;99.90;;;;;;5054131;28;20049;-75
2022/04/06 03:40:49;;;;;;;52.92;30.10;;;3.40;99.90;;;;;;5036053;28;20049;-76
2022/04/06 03:43:17;;;;;;;92.25;47.47;;;3.40;99.90;;;;;;5035754;28;20041;-76
2022/04/06 03:45:44;;;;;;;79.82;41.72;;;3.40;99.90;;;;;;5053710;28;20585;-76
2022/04/06 03:48:12;;;;;;;66.65;37.67;;;3.40;99.90;;;;;;5036450;28;20139;-76
2022/04/06 03:50:40;;;;;;;72.50;39.67;;;3.40;99.90;;;;;;5053909;28;20049;-75
2022/04/06 03:53:07;;;;;;;73.05;40.33;;;3.40;99.90;;;;;;5034798;28;20073;-74
2022/04/06 03:55:35;;;;;;;85.78;40.83;;;3.30;99.90;;;;;;5035708;28;20041;-76
2022/04/06 03:58:04;;;;;;;65.70;34.35;;;3.20;99.90;;;;;;5028603;28;20053;-76
2022/04/06 04:00:32;;;;;;;82.47;39.90;;;3.10;99.90;;;;;;5044459;28;20049;-76
2022/04/06 04:03:00;;;;;;;84.07;49.28;;;3.10;99.90;;;;;;5052908;28;20099;-76
2022/04/06 04:05:28;;;;;;;43.10;24.65;;;3.00;99.90;;;;;;5027739;28;20445;-76
2022/04/06 04:07:55;;;;;;;43.72;26.73;;;3.10;99.90;;;;;;5036007;28;20045;-77
2022/04/06 04:10:23;;;;;;;43.83;25.98;;;3.10;99.90;;;;;;5035919;28;20045;-77
2022/04/06 04:12:51;;;;;;;51.13;30.30;;;3.10;99.90;;;;;;5050080;28;20079;-77
2022/04/06 04:15:20;;;;;;;53.97;31.48;;;3.10;99.90;;;;;;5026927;28;20041;-77
2022/04/06 04:17:47;;;;;;;66.88;36.45;;;3.10;99.90;;;;;;5053230;28;20059;-75
2022/04/06 04:20:18;;;;;;;69.00;35.60;;;3.10;99.90;;;;;;5036239;28;20048;-77
2022/04/06 04:22:46;;;;;;;77.63;37.58;;;3.00;99.90;;;;;;5053158;28;20485;-77
2022/04/06 04:25:14;;;;;;;79.25;43.15;;;2.90;99.90;;;;;;5035602;28;20053;-76
2022/04/06 04:27:42;;;;;;;76.28;44.03;;;2.80;99.90;;;;;;5058678;28;20053;-76
2022/04/06 04:30:11;;;;;;;72.28;41.78;;;2.90;99.90;;;;;;5039888;28;20041;-77
2022/04/06 04:32:40;;;;;;;75.88;42.38;;;2.90;99.90;;;;;;5037449;28;20116;-78
2022/04/06 04:35:09;;;;;;;78.85;40.97;;;2.90;99.90;;;;;;5032065;28;20048;-76
2022/04/06 04:37:38;;;;;;;65.90;38.70;;;2.90;99.90;;;;;;5035895;28;20049;-77
2022/04/06 04:40:07;;;;;;;68.25;38.03;;;3.00;99.90;;;;;;5033523;28;20068;-78
2022/04/06 04:42:35;;;;;;;65.43;36.13;;;3.10;99.90;;;;;;5056006;28;20481;-75
2022/04/06 04:45:04;;;;;;;72.28;38.95;;;3.20;99.90;;;;;;5039495;28;20102;-76
2022/04/06 04:47:32;;;;;;;77.07;41.05;;;3.30;99.90;;;;;;5073399;28;20036;-76
2022/04/06 04:50:01;;;;;;;88.07;47.05;;;3.30;99.90;;;;;;5078183;28;20109;-77
2022/04/06 04:52:29;;;;;;;99.28;51.08;;;3.30;99.90;;;;;;5050537;28;20053;-77
2022/04/06 04:54:59;;;;;;;93.47;50.83;;;3.30;99.90;;;;;;5056367;28;20458;-77
2022/04/06 04:57:27;;;;;;;100.35;50.65;;;3.30;99.90;;;;;;5038951;28;20040;-77
2022/04/06 04:59:54;;;;;;;88.85;45.90;;;3.40;99.90;;;;;;5040325;28;20056;-77
2022/04/06 05:02:22;;;;;;;115.82;56.78;;;3.40;99.90;;;;;;5047348;28;20072;-76
2022/04/06 05:04:50;;;;;;;136.73;68.47;;;3.50;99.90;;;;;;5050960;28;20468;-78
2022/04/06 05:07:19;;;;;;;104.18;52.45;;;3.50;99.90;;;;;;5039822;28;20076;-77
2022/04/06 05:09:47;;;;;;;94.05;47.25;;;3.60;99.90;;;;;;5039458;28;20045;-78
2022/04/06 05:12:15;;;;;;;73.95;37.30;;;3.60;99.90;;;;;;5051092;28;20405;-75
2022/04/06 05:14:43;;;;;;;72.72;37.95;;;3.70;99.90;;;;;;5018934;28;20040;-77
2022/04/06 05:17:10;;;;;;;54.25;31.58;;;3.70;99.90;;;;;;5039642;28;20083;-77
2022/04/06 05:19:38;;;;;;;48.70;28.52;;;3.80;99.90;;;;;;5055239;28;20136;-77
2022/04/06 05:22:07;;;;;;;52.35;33.38;;;3.90;99.90;;;;;;5034826;28;20727;-77
2022/04/06 05:24:36;;;;;;;81.63;44.83;;;4.00;99.90;;;;;;5046489;28;20060;-77
2022/04/06 05:27:05;;;;;;;70.78;41.67;;;4.10;99.90;;;;;;5055650;28;20048;-76
2022/04/06 05:29:34;;;;;;;58.40;35.05;;;4.30;99.90;;;;;;5034018;28;20060;-76
2022/04/06 05:32:02;;;;;;;54.65;33.90;;;4.40;99.90;;;;;;5055572;28;20434;-74
2022/04/06 05:34:30;;;;;;;56.70;33.60;;;4.50;99.90;;;;;;5037710;28;20045;-77
2022/04/06 05:36:58;;;;;;;61.50;37.40;;;4.80;99.90;;;;;;5038234;28;20143;-76
2022/04/06 05:39:25;;;;;;;62.08;36.97;;;5.00;99.90;;;;;;5056975;28;20128;-77
2022/04/06 05:41:54;;;;;;;53.95;33.17;;;5.20;99.90;;;;;;5056296;28;20048;-76
2022/04/06 05:44:22;;;;;;;64.75;32.10;;;5.40;99.90;;;;;;5055013;28;20057;-76
2022/04/06 05:46:50;;;;;;;53.80;31.83;;;5.60;99.90;;;;;;5037143;28;20056;-77
2022/04/06 05:49:17;;;;;;;61.22;34.58;;;5.90;99.90;;;;;;5037066;28;20049;-77
2022/04/06 05:51:45;;;;;;;60.45;34.33;;;6.10;99.90;;;;;;5048620;28;20396;-76
2022/04/06 05:54:12;;;;;;;59.03;36.58;;;6.30;99.90;;;;;;5039425;28;20041;-77
2022/04/06 05:56:40;;;;;;;61.60;35.08;;;6.60;99.90;;;;;;5058940;28;20044;-77
2022/04/06 05:59:09;;;;;;;62.95;36.38;;;6.90;99.90;;;;;;5057453;28;20068;-76
2022/04/06 06:01:36;;;;;;;60.97;36.92;;;7.30;99.90;;;;;;5042210;28;20072;-77
2022/04/06 06:04:04;;;;;;;59.33;37.65;;;7.70;99.90;;;;;;5040786;28;20045;-77
2022/04/06 06:06:32;;;;;;;61.45;35.55;;;8.00;99.90;;;;;;5061639;28;20152;-78
2022/04/06 06:09:00;;;;;;;53.08;33.95;;;8.40;99.90;;;;;;5039592;28;20136;-76
2022/04/06 06:11:27;;;;;;;48.92;30.40;;;8.70;99.90;;;;;;5038033;28;20057;-78
2022/04/06 06:13:55;;;;;;;72.63;38.33;;;8.90;99.90;;;;;;5055977;28;20416;-77
2022/04/06 06:16:24;;;;;;;49.13;28.40;;;9.30;99.90;;;;;;5058004;28;20044;-77
2022/04/06 06:18:52;;;;;;;39.03;24.45;;;9.60;99.90;;;;;;5038582;28;20459;-76
2022/04/06 06:21:19;;;;;;;45.85;27.10;;;9.90;99.90;;;;;;5044048;28;20052;-78
2022/04/06 06:23:46;;;;;;;51.88;27.60;;;10.00;99.90;;;;;;5032844;28;20044;-77
2022/04/06 06:26:14;;;;;;;41.95;24.65;;;10.30;99.90;;;;;;5048806;28;20489;-76
2022/04/06 06:28:41;;;;;;;40.38;24.75;;;10.40;99.90;;;;;;5044822;28;20041;-76
2022/04/06 06:31:09;;;;;;;40.60;23.88;;;10.30;99.90;;;;;;5032888;28;20051;-77
2022/04/06 06:33:38;;;;;;;36.65;23.13;;;10.40;99.90;;;;;;5048783;28;20096;-77
2022/04/06 06:36:06;;;;;;;33.75;22.42;;;10.70;99.90;;;;;;5055005;28;20049;-77
2022/04/06 06:38:33;;;;;;;36.03;21.88;;;10.90;99.90;;;;;;5055285;28;20120;-78
2022/04/06 06:41:01;;;;;;;48.33;26.77;;;11.10;99.90;;;;;;5055343;28;20453;-77
2022/04/06 06:43:29;;;;;;;40.72;25.27;;;11.30;99.90;;;;;;5054532;28;20385;-76
2022/04/06 06:45:56;;;;;;;47.03;27.35;;;11.60;99.90;;;;;;5056447;28;20071;-77
2022/04/06 06:48:24;;;;;;;42.15;25.77;;;11.70;99.90;;;;;;5056271;28;20045;-76
2022/04/06 06:50:52;;;;;;;43.92;24.63;;;12.00;99.90;;;;;;5056258;28;20055;-76
2022/04/06 06:53:20;;;;;;;35.00;21.65;;;12.30;99.90;;;;;;5054837;28;20048;-77
2022/04/06 06:55:47;;;;;;;40.17;23.73;;;12.50;99.90;;;;;;5055710;28;20144;-77
2022/04/06 06:58:15;;;;;;;40.03;22.65;;;12.70;99.90;;;;;;5054538;28;20045;-77
2022/04/06 07:00:42;;;;;;;34.42;22.40;;;12.90;99.90;;;;;;5055883;28;20071;-76
2022/04/06 07:03:09;;;;;;;40.00;24.38;;;13.20;99.90;;;;;;5055567;28;20037;-78
2022/04/06 07:05:37;;;;;;;45.55;29.67;;;13.50;99.90;;;;;;5037892;28;20053;-77
2022/04/06 07:08:07;;;;;;;47.28;27.33;;;13.50;99.90;;;;;;5055876;28;20041;-76
2022/04/06 07:10:34;;;;;;;37.50;23.90;;;13.70;99.90;;;;;;5027517;28;20052;-77
2022/04/06 07:13:02;;;;;;;33.42;24.00;;;13.90;99.90;;;;;;5030004;28;20051;-78
2022/04/06 07:15:31;;;;;;;41.13;26.88;;;14.30;99.90;;;;;;5055062;28;20492;-78
2022/04/06 07:17:59;;;;;;;30.17;20.85;;;14.50;99.90;;;;;;5031745;28;20065;-78
2022/04/06 07:20:29;;;;;;;31.90;18.90;;;14.70;99.90;;;;;;5056113;28;20095;-77
2022/04/06 07:22:56;;;;;;;35.10;23.13;;;14.80;99.90;;;;;;5038338;28;20095;-77
2022/04/06 07:25:25;;;;;;;26.95;17.95;;;14.90;99.90;;;;;;5060368;28;20045;-76
2022/04/06 07:27:52;;;;;;;37.38;20.90;;;15.00;99.90;;;;;;5061886;28;20526;-77
2022/04/06 07:30:20;;;;;;;28.25;15.07;;;15.30;99.90;;;;;;5060255;28;20045;-78
2022/04/06 07:32:47;;;;;;;28.08;15.00;;;15.50;99.90;;;;;;5041479;28;20541;-78
2022/04/06 07:35:16;;;;;;;20.30;12.90;;;15.50;99.90;;;;;;5057279;28;20428;-78
2022/04/06 07:37:47;;;;;;;15.48;10.15;;;15.80;99.90;;;;;;5059964;28;20045;-78
2022/04/06 07:40:16;;;;;;;21.63;8.77;;;15.90;99.30;;;;;;5059424;28;20066;-76
2022/04/06 07:42:46;;;;;;;30.30;16.83;;;15.90;97.90;;;;;;5057901;28;20128;-78
2022/04/06 07:45:16;;;;;;;18.85;11.13;;;16.10;97.40;;;;;;5059757;28;20124;-78
2022/04/06 07:47:45;;;;;;;13.55;8.85;;;16.30;96.70;;;;;;5059680;28;20056;-78
2022/04/06 07:50:14;;;;;;;19.30;11.20;;;16.40;94.50;;;;;;5042268;28;20056;-77
2022/04/06 07:52:42;;;;;;;16.25;10.05;;;16.50;94.60;;;;;;5061199;28;20041;-78
2022/04/06 07:55:11;;;;;;;15.57;10.32;;;16.70;93.70;;;;;;5061246;28;20496;-77
2022/04/06 07:57:39;;;;;;;22.92;11.88;;;16.90;93.30;;;;;;5062000;28;20131;-78
2022/04/06 08:00:10;;;;;;;19.67;10.40;;;16.90;92.70;;;;;;5061179;28;20114;-78
2022/04/06 08:02:38;;;;;;;19.60;9.98;;;17.00;91.90;;;;;;5043233;28;20053;-78
2022/04/06 08:05:06;;;;;;;23.45;10.75;;;17.30;91.10;;;;;;5042840;28;20059;-78
2022/04/06 08:07:39;;;;;;;39.63;11.32;;;17.40;89.80;;;;;;5061268;28;20577;-79
2022/04/06 08:10:09;;;;;;;12.73;7.70;;;17.50;88.90;;;;;;5061546;28;20045;-78
2022/04/06 08:12:37;;;;;;;14.43;8.27;;;17.70;86.80;;;;;;5063136;28;20185;-78
2022/04/06 08:15:05;;;;;;;12.77;7.93;;;17.80;84.80;;;;;;5058815;28;20166;-77
2022/04/06 08:17:35;;;;;;;11.60;7.50;;;17.80;83.20;;;;;;5075135;28;20065;-79
2022/04/06 08:20:04;;;;;;;15.27;9.68;;;17.80;83.60;;;;;;5078520;28;20105;-77
2022/04/06 08:22:31;;;;;;;17.02;8.65;;;17.70;84.20;;;;;;5077563;28;20066;-77
2022/04/06 08:24:59;;;;;;;13.40;8.07;;;17.70;85.60;;;;;;5062227;28;20041;-78
2022/04/06 08:27:28;;;;;;;11.95;7.85;;;17.70;85.60;;;;;;5072061;28;20041;-78
2022/04/06 08:29:55;;;;;;;11.68;7.03;;;17.80;86.10;;;;;;5070027;28;20053;-78
2022/04/06 08:32:22;;;;;;;14.73;7.95;;;17.90;85.20;;;;;;5062205;28;20044;-78
2022/04/06 08:34:51;;;;;;;13.38;7.88;;;18.00;84.80;;;;;;5061555;28;20041;-78
2022/04/06 08:37:19;;;;;;;12.35;7.63;;;18.00;85.40;;;;;;5064241;28;20049;-79
2022/04/06 08:39:46;;;;;;;13.32;7.82;;;18.00;85.60;;;;;;5060059;28;20063;-78
2022/04/06 08:42:15;;;;;;;11.98;7.05;;;18.00;85.60;;;;;;5062637;28;20067;-77
2022/04/06 08:44:42;;;;;;;13.60;7.35;;;18.00;84.70;;;;;;5062110;28;20041;-77
2022/04/06 08:47:11;;;;;;;12.00;8.15;;;18.10;84.10;;;;;;5046299;28;20041;-77
2022/04/06 08:49:41;;;;;;;15.48;7.10;;;18.30;84.80;;;;;;5060502;28;20436;-78
2022/04/06 08:52:12;;;;;;;14.52;7.63;;;18.50;84.10;;;;;;5063334;28;20124;-78
2022/04/06 08:54:40;;;;;;;12.85;7.40;;;18.70;81.90;;;;;;5061112;28;20029;-79
2022/04/06 08:57:08;;;;;;;14.93;7.45;;;19.00;80.00;;;;;;5060752;28;20041;-79
2022/04/06 08:59:35;;;;;;;14.00;7.75;;;19.10;80.80;;;;;;5063676;28;20075;-77
2022/04/06 09:02:03;;;;;;;15.95;7.70;;;19.40;80.40;;;;;;5046723;28;20053;-79
2022/04/06 09:04:35;;;;;;;13.35;7.57;;;19.40;79.10;;;;;;5076284;28;20041;-79
2022/04/06 09:07:10;;;;;;;11.90;7.57;;;19.50;78.60;;;;;;5079865;28;20058;-77
2022/04/06 09:09:38;;;;;;;16.65;8.27;;;19.50;76.80;;;;;;5053498;28;20049;-78
2022/04/06 09:12:10;;;;;;;14.90;7.20;;;19.60;76.00;;;;;;5064407;28;20045;-78
2022/04/06 09:14:37;;;;;;;13.02;7.32;;;19.70;75.80;;;;;;5062230;28;20116;-77
2022/04/06 09:17:06;;;;;;;12.43;7.15;;;19.80;75.60;;;;;;5063084;28;20052;-77
2022/04/06 09:19:37;;;;;;;13.48;8.35;;;19.90;75.20;;;;;;5062515;28;20051;-78
2022/04/06 09:22:08;;;;;;;12.38;7.43;;;20.10;74.90;;;;;;5062166;28;20087;-77
2022/04/06 09:24:37;;;;;;;11.00;6.95;;;20.10;74.00;;;;;;5062677;28;20092;-77
2022/04/06 09:27:05;;;;;;;12.35;8.23;;;20.30;72.80;;;;;;5045684;28;20037;-78
2022/04/06 09:29:35;;;;;;;9.98;5.95;;;20.50;71.80;;;;;;5062744;28;20048;-77
2022/04/06 09:32:07;;;;;;;10.80;6.05;;;20.50;66.50;;;;;;5063454;28;20388;-79
2022/04/06 09:34:35;;;;;;;9.95;5.35;;;20.50;66.50;;;;;;5061759;28;20041;-78
2022/04/06 09:37:24;;;;;;;9.10;5.10;;;20.50;66.50;;;;;;5059884;28;20120;-76
2022/04/06 09:39:54;;;;;;;10.70;7.13;;;20.40;66.00;;;;;;5061205;28;20488;-78
2022/04/06 09:42:22;;;;;;;11.75;6.38;;;20.60;66.90;;;;;;5060949;28;20049;-76
2022/04/06 09:47:44;;;;;;;10.73;7.07;;;20.70;66.30;;;;;;5059884;28;20045;-77
2022/04/06 09:50:15;;;;;;;6.93;3.65;;;20.80;66.10;;;;;;5059536;28;20037;-78
2022/04/06 09:52:43;;;;;;;6.72;2.72;;;20.90;63.00;;;;;;5061475;28;20053;-76
2022/04/06 09:55:13;;;;;;;7.38;2.95;;;21.00;61.60;;;;;;5060387;28;20124;-77
2022/04/06 09:57:43;;;;;;;3.67;2.08;;;20.90;60.00;;;;;;5060247;28;20041;-78
2022/04/06 10:00:13;;;;;;;3.70;2.40;;;20.80;58.70;;;;;;5041727;28;20114;-77
2022/04/06 10:02:42;;;;;;;6.38;2.92;;;20.90;59.00;;;;;;5042615;28;20131;-78
2022/04/06 10:05:13;;;;;;;4.20;2.60;;;21.00;59.40;;;;;;5060977;28;20112;-78
2022/04/06 10:07:43;;;;;;;10.70;6.30;;;21.00;59.80;;;;;;5060170;28;20056;-78
2022/04/06 10:10:13;;;;;;;6.03;2.45;;;21.00;59.40;;;;;;5060551;28;20041;-78
2022/04/06 10:12:41;;;;;;;3.92;2.28;;;21.00;59.00;;;;;;5044556;28;20455;-79
2022/04/06 10:15:09;;;;;;;7.30;3.67;;;21.10;59.10;;;;;;5065803;28;20045;-78
2022/04/06 10:17:37;;;;;;;7.07;4.00;;;21.20;58.90;;;;;;5062325;28;20041;-79
2022/04/06 10:20:12;;;;;;;5.47;2.50;;;21.40;58.50;;;;;;5061502;28;20048;-77
2022/04/06 10:22:49;;;;;;;5.05;3.20;;;21.50;57.30;;;;;;5063339;28;20041;-79
2022/04/06 10:25:26;;;;;;;3.80;1.85;;;21.60;57.30;;;;;;5066412;28;20140;-78
2022/04/06 10:27:57;;;;;;;5.35;2.50;;;21.40;55.90;;;;;;5069852;28;20049;-78
2022/04/06 10:30:27;;;;;;;4.72;2.75;;;21.30;55.80;;;;;;5068248;28;20052;-78
2022/04/06 10:32:58;;;;;;;6.75;4.00;;;21.40;56.30;;;;;;5060981;28;20127;-79
2022/04/06 10:35:27;;;;;;;5.15;2.90;;;21.60;55.70;;;;;;5058063;28;20041;-78
2022/04/06 10:38:20;;;;;;;5.55;2.75;;;21.80;54.30;;;;;;5060524;28;20041;-79
2022/04/06 10:41:00;;;;;;;3.33;2.38;;;21.90;54.40;;;;;;5064903;28;20083;-78
2022/04/06 10:43:50;;;;;;;8.60;2.80;;;21.80;54.00;;;;;;5060417;28;20075;-79
2022/04/06 10:46:32;;;;;;;6.70;2.40;;;21.70;53.80;;;;;;5062223;28;20040;-78
2022/04/06 10:49:10;;;;;;;4.88;2.58;;;21.60;53.70;;;;;;5063753;28;20129;-78
2022/04/06 10:51:38;;;;;;;4.82;2.33;;;21.50;53.50;;;;;;5062963;28;20045;-78
2022/04/06 10:54:39;;;;;;;4.88;2.85;;;21.60;54.20;;;;;;5042162;28;20131;-79
2022/04/06 10:57:08;;;;;;;9.63;3.80;;;21.70;54.20;;;;;;5061103;28;20072;-79
2022/04/06 10:59:35;;;;;;;9.18;3.55;;;21.80;54.80;;;;;;5061454;28;20041;-80
2022/04/06 11:02:23;;;;;;;4.70;2.60;;;22.00;54.20;;;;;;5064769;28;20054;-80
2022/04/06 11:04:52;;;;;;;5.90;2.53;;;22.10;52.80;;;;;;5073273;28;20055;-78
2022/04/06 11:10:14;;;;;;;5.95;2.00;;;21.90;52.50;;;;;;5073117;28;20025;-80
2022/04/06 11:13:03;;;;;;;5.05;2.55;;;21.90;52.60;;;;;;5072451;28;20060;-78
2022/04/06 11:15:37;;;;;;;5.22;2.40;;;21.90;52.80;;;;;;5055329;28;20075;-79
2022/04/06 11:18:23;;;;;;;3.63;2.13;;;22.10;54.20;;;;;;5076121;28;20047;-78
2022/04/06 11:21:01;;;;;;;6.50;2.10;;;22.10;52.30;;;;;;5072747;28;20112;-77
2022/04/06 11:23:30;;;;;;;4.22;1.70;;;22.10;52.00;;;;;;5073769;28;20067;-78
2022/04/06 11:26:00;;;;;;;5.00;2.00;;;22.10;51.50;;;;;;5074775;28;20041;-80
2022/04/06 11:28:30;;;;;;;6.80;3.38;;;22.10;52.20;;;;;;5075660;28;20048;-78
2022/04/06 11:30:57;;;;;;;3.55;2.17;;;22.20;51.60;;;;;;5052114;28;20051;-78
2022/04/06 11:33:39;;;;;;;5.10;2.75;;;22.30;51.00;;;;;;5064332;28;20488;-79
2022/04/06 11:36:17;;;;;;;5.68;2.85;;;22.30;50.70;;;;;;5065777;28;20052;-78
2022/04/06 11:38:50;;;;;;;3.78;2.65;;;22.40;50.50;;;;;;5065292;28;20095;-78
2022/04/06 11:41:19;;;;;;;6.25;3.13;;;22.40;50.10;;;;;;5064278;28;20041;-79
2022/04/06 11:43:50;;;;;;;5.78;2.10;;;22.40;49.60;;;;;;5074479;23;20055;-76
2022/04/06 11:46:17;;;;;;;4.55;1.90;;;22.40;49.70;;;;;;5104693;28;20047;-76
2022/04/06 11:48:45;;;;;;;18.98;2.72;;;22.30;48.80;;;;;;5104055;28;20044;-76
2022/04/06 11:51:13;;;;;;;5.60;2.90;;;22.30;49.00;;;;;;5114551;28;20175;-76
2022/04/06 11:53:40;;;;;;;10.00;3.90;;;22.30;49.10;;;;;;5109947;28;20040;-78
2022/04/06 11:56:08;;;;;;;4.18;2.00;;;22.40;49.30;;;;;;5116304;28;20473;-76
2022/04/06 11:58:37;;;;;;;3.75;1.55;;;22.40;48.10;;;;;;5117028;28;20069;-76
2022/04/06 12:01:08;;;;;;;5.15;3.72;;;22.30;48.20;;;;;;5102773;28;20444;-77
2022/04/06 12:03:37;;;;;;;4.40;1.98;;;22.30;48.40;;;;;;5098508;28;20044;-75
2022/04/06 12:06:06;;;;;;;6.38;2.72;;;22.40;47.80;;;;;;5098309;28;20097;-76
2022/04/06 12:08:35;;;;;;;9.07;6.35;;;22.30;48.50;;;;;;5098515;28;20469;-76
2022/04/06 12:11:03;;;;;;;5.93;3.70;;;22.40;48.50;;;;;;5097129;28;20542;-77
2022/04/06 12:13:34;;;;;;;5.30;3.15;;;22.40;46.80;;;;;;5098848;28;20094;-77
2022/04/06 12:16:03;;;;;;;6.35;2.10;;;22.40;47.40;;;;;;5098907;28;20131;-76
2022/04/06 12:18:33;;;;;;;3.72;2.13;;;22.50;47.50;;;;;;5099459;28;20052;-77
2022/04/06 12:21:01;;;;;;;6.53;3.08;;;22.60;47.80;;;;;;5099851;28;20168;-77
2022/04/06 12:23:29;;;;;;;4.18;3.00;;;22.60;47.90;;;;;;5099161;28;20147;-76
2022/04/06 12:25:58;;;;;;;5.30;2.10;;;22.80;47.90;;;;;;5100596;28;20036;-77
2022/04/06 12:28:27;;;;;;;7.00;4.25;;;22.80;47.40;;;;;;5098351;28;20084;-77
2022/04/06 12:30:59;;;;;;;3.65;1.90;;;22.80;47.80;;;;;;5111929;28;20036;-78
2022/04/06 12:33:39;;;;;;;3.10;1.98;;;22.80;46.70;;;;;;5113423;28;20071;-77
2022/04/06 12:36:12;;;;;;;4.00;1.70;;;22.70;46.70;;;;;;5104587;28;20064;-76
2022/04/06 12:38:42;;;;;;;4.22;2.20;;;22.60;45.60;;;;;;5097268;28;20048;-76
2022/04/06 12:41:11;;;;;;;4.90;1.70;;;22.50;46.30;;;;;;5103970;28;20098;-76
2022/04/06 12:43:40;;;;;;;3.47;1.80;;;22.60;47.50;;;;;;5096376;28;20052;-77
2022/04/06 12:46:08;;;;;;;4.40;2.30;;;22.70;46.80;;;;;;5097958;28;20040;-78
2022/04/06 12:48:35;;;;;;;3.20;1.67;;;22.70;45.40;;;;;;5097285;28;20047;-77
2022/04/06 12:51:21;;;;;;;4.68;1.60;;;22.70;45.20;;;;;;5096075;28;20048;-77
2022/04/06 12:53:50;;;;;;;3.58;1.80;;;22.70;45.30;;;;;;5095571;28;20044;-77
2022/04/06 12:56:23;;;;;;;4.00;1.90;;;22.70;45.30;;;;;;5097358;28;20036;-77
2022/04/06 12:59:10;;;;;;;4.82;2.15;;;22.70;45.20;;;;;;5095810;28;20044;-76
2022/04/06 13:01:46;;;;;;;5.63;3.83;;;22.80;45.30;;;;;;5096864;28;20048;-77